Eglin Air Force Base
KVPS : now visible

Airfield :











YOU CAN JOIN US ON...

 
LOGIN :

Register | Disclaimer

   EN    FR    IT 

 









Legend :    VFR   Marginal VFR   IFR   Intensive IFR   Very Intensive IFR
Visi :
Ceiling :
>= 8 km
>= 3000ft
5 to 8 km
1000 to 3000 ft
1500m to 5 km
500 to 1000 ft
800 to 1500m
200 to 500 ft
< 800m
< 200 ft
Symbols :   Thunderstorms  Fog  Heavy snow  Heavy precipitations  Wind > 20 kt






- Airport Elevation : 87 ft
- IATA code : VPS


KVPS - Eglin Air Force Base

CURRENT METAR :
  • 251958Z 15014KT 10SM SCT008 BKN030 22/19 A2990 RMK AO2A SLP132 T02190185 $

EXPIRED METARs :
  • 251925Z 16014KT 10SM SCT009 OVC043 21/19 A2991 RMK AO2A SLP135 $
  • 251856Z AUTO 16014KT 10SM OVC041 22/18 A2991 RMK AO2 SLP135 T02160184 $
  • 251835Z 15013KT 10SM SCT008 BKN026 22/18 A2992 RMK AO2A SLP138 $
  • 251811Z AUTO 15014KT 10SM OVC008 22/19 A2992 RMK AO2 PRESFR SLP138 $
  • 251756Z AUTO 15014G21KT 10SM OVC007 22/19 A2994 RMK AO2 SLP145 P0000 60000 T02170185 10217 20157 58014 $
  • 251709Z 16015G19KT 10SM OVC007 21/19 A2996 RMK AO2A SLP152 T02130187 10213 20156 58002 $

TAF AMD TAF KVPS
Valid from the 25 at 19:00 until the 27 at 00:00 UTC


251900Z 2519/2624 16012G18KT 9999 FEW008 BKN025 QNH2990INS
BECMG 2601/2602 17012KT 4800 BR BKN005 OVC012 QNH2989INS
TEMPO 2603/2605 1600 BR
BECMG 2604/2605 20008KT 0800 FG VCSH OVC001 QNH2989INS
BECMG 2607/2608 20009KT 3200 -SHRA BR OVC009 QNH2987INS
BECMG 2616/2617 21009KT 9999 NSW BKN005 OVC010 QNH2990INS
BECMG 2622/2623 19010KT 6000 -SHRA BR BKN005 OVC008 QNH2990INS
TEMPO 2623/2624 21012G18KT VCTS BKN003CB TX23/2520Z TN17/2611Z
KZJX FIR / North America



MET'MAP, your aeronautical weather chart ! - Copyright ORBIFLY December 2007 - Disclaimer

ORBIFLY MET'MAP TEAM :

Programming & Development : Alexandra Zaïnal
Concept & original design : Baudouin d'Aumeries
Assistance for programming : Marc-Olivier Méhu
Technical & hardware support : Manuel Goepfert

Contact : metmap@orbifly.com




SOURCES & CREDITS :

   NOAA       Earth
Advisory